sensor_id;sensor_type;location;lat;lon;timestamp;temperature;humidity
9167;DHT22;4618;48.818;9.088;2023-05-10T00:00:01;13.50;99.90
9167;DHT22;4618;48.818;9.088;2023-05-10T00:02:27;13.50;99.90
9167;DHT22;4618;48.818;9.088;2023-05-10T00:04:53;13.40;99.90
9167;DHT22;4618;48.818;9.088;2023-05-10T00:07:18;13.30;98.00
9167;DHT22;4618;48.818;9.088;2023-05-10T00:09:44;13.20;1.00
9167;DHT22;4618;48.818;9.088;2023-05-10T00:12:09;13.10;1.00
9167;DHT22;4618;48.818;9.088;2023-05-10T00:14:35;12.90;19.90
9167;DHT22;4618;48.818;9.088;2023-05-10T00:17:01;12.80;99.90
9167;DHT22;4618;48.818;9.088;2023-05-10T00:19:26;12.80;99.90
9167;DHT22;4618;48.818;9.088;2023-05-10T00:21:52;12.70;99.90
9167;DHT22;4618;48.818;9.088;2023-05-10T00:24:17;12.70;99.90
9167;DHT22;4618;48.818;9.088;2023-05-10T00:26:43;12.60;99.90
9167;DHT22;4618;48.818;9.088;2023-05-10T00:29:08;12.60;99.90
9167;DHT22;4618;48.818;9.088;2023-05-10T00:31:34;12.60;99.90
9167;DHT22;4618;48.818;9.088;2023-05-10T00:34:00;12.50;99.90
9167;DHT22;4618;48.818;9.088;2023-05-10T00:36:25;12.50;1.00
9167;DHT22;4618;48.818;9.088;2023-05-10T00:38:51;12.60;1.00
9167;DHT22;4618;48.818;9.088;2023-05-10T00:41:16;12.50;1.00
9167;DHT22;4618;48.818;9.088;2023-05-10T00:43:42;12.50;1.00
9167;DHT22;4618;48.818;9.088;2023-05-10T00:46:08;12.40;1.00
9167;DHT22;4618;48.818;9.088;2023-05-10T00:48:34;12.40;1.00
9167;DHT22;4618;48.818;9.088;2023-05-10T00:51:01;12.40;1.00
9167;DHT22;4618;48.818;9.088;2023-05-10T00:53:27;12.40;1.00
9167;DHT22;4618;48.818;9.088;2023-05-10T00:55:53;12.40;1.00
9167;DHT22;4618;48.818;9.088;2023-05-10T00:58:18;12.40;1.00
9167;DHT22;4618;48.818;9.088;2023-05-10T01:00:46;12.40;1.00
9167;DHT22;4618;48.818;9.088;2023-05-10T01:03:12;12.40;1.00
9167;DHT22;4618;48.818;9.088;2023-05-10T01:05:38;12.40;1.00
9167;DHT22;4618;48.818;9.088;2023-05-10T01:08:04;12.50;99.90
9167;DHT22;4618;48.818;9.088;2023-05-10T01:10:30;12.50;99.90
9167;DHT22;4618;48.818;9.088;2023-05-10T01:12:56;12.50;99.90
9167;DHT22;4618;48.818;9.088;2023-05-10T01:15:22;12.50;99.90
9167;DHT22;4618;48.818;9.088;2023-05-10T01:17:49;12.50;99.90
9167;DHT22;4618;48.818;9.088;2023-05-10T01:20:15;12.50;1.00
9167;DHT22;4618;48.818;9.088;2023-05-10T01:33:43;12.60;2.90
9167;DHT22;4618;48.818;9.088;2023-05-10T01:36:32;12.40;16.00
9167;DHT22;4618;48.818;9.088;2023-05-10T01:39:25;12.50;99.90
9167;DHT22;4618;48.818;9.088;2023-05-10T01:42:08;12.40;99.90
9167;DHT22;4618;48.818;9.088;2023-05-10T01:47:10;12.40;99.90
9167;DHT22;4618;48.818;9.088;2023-05-10T01:49:47;12.30;99.90
9167;DHT22;4618;48.818;9.088;2023-05-10T01:52:18;12.30;99.90
9167;DHT22;4618;48.818;9.088;2023-05-10T01:54:59;12.30;99.90
9167;DHT22;4618;48.818;9.088;2023-05-10T01:57:29;12.30;99.90
9167;DHT22;4618;48.818;9.088;2023-05-10T01:59:58;12.30;99.90
9167;DHT22;4618;48.818;9.088;2023-05-10T02:02:25;12.30;99.90
9167;DHT22;4618;48.818;9.088;2023-05-10T02:04:53;12.30;99.90
9167;DHT22;4618;48.818;9.088;2023-05-10T02:07:21;12.30;99.90
9167;DHT22;4618;48.818;9.088;2023-05-10T02:09:48;12.30;99.90
9167;DHT22;4618;48.818;9.088;2023-05-10T02:12:14;12.20;99.90
9167;DHT22;4618;48.818;9.088;2023-05-10T02:14:41;12.10;99.90
9167;DHT22;4618;48.818;9.088;2023-05-10T02:17:07;12.10;1.00
9167;DHT22;4618;48.818;9.088;2023-05-10T02:19:35;12.10;1.00
9167;DHT22;4618;48.818;9.088;2023-05-10T02:22:02;12.10;1.00
9167;DHT22;4618;48.818;9.088;2023-05-10T02:24:28;12.10;1.00
9167;DHT22;4618;48.818;9.088;2023-05-10T02:26:55;12.10;99.90
9167;DHT22;4618;48.818;9.088;2023-05-10T02:29:23;12.10;99.90
9167;DHT22;4618;48.818;9.088;2023-05-10T02:31:52;12.10;99.90
9167;DHT22;4618;48.818;9.088;2023-05-10T02:34:19;12.20;99.90
9167;DHT22;4618;48.818;9.088;2023-05-10T02:36:45;12.20;99.90
9167;DHT22;4618;48.818;9.088;2023-05-10T02:39:11;12.20;99.90
9167;DHT22;4618;48.818;9.088;2023-05-10T02:41:40;12.30;99.90
9167;DHT22;4618;48.818;9.088;2023-05-10T02:44:07;12.30;99.90
9167;DHT22;4618;48.818;9.088;2023-05-10T02:46:34;12.30;1.00
9167;DHT22;4618;48.818;9.088;2023-05-10T02:49:00;12.20;4.60
9167;DHT22;4618;48.818;9.088;2023-05-10T02:51:30;12.20;8.00
9167;DHT22;4618;48.818;9.088;2023-05-10T02:54:06;12.20;6.50
9167;DHT22;4618;48.818;9.088;2023-05-10T02:56:36;12.20;99.90
9167;DHT22;4618;48.818;9.088;2023-05-10T02:59:06;12.20;99.90
9167;DHT22;4618;48.818;9.088;2023-05-10T03:01:31;12.20;99.90
9167;DHT22;4618;48.818;9.088;2023-05-10T03:03:57;12.20;99.90
9167;DHT22;4618;48.818;9.088;2023-05-10T03:06:23;12.20;99.90
9167;DHT22;4618;48.818;9.088;2023-05-10T03:08:49;12.20;99.90
9167;DHT22;4618;48.818;9.088;2023-05-10T03:14:42;12.30;1.00
9167;DHT22;4618;48.818;9.088;2023-05-10T03:17:17;12.30;1.00
9167;DHT22;4618;48.818;9.088;2023-05-10T03:19:58;12.30;1.00
9167;DHT22;4618;48.818;9.088;2023-05-10T03:22:34;12.20;1.00
9167;DHT22;4618;48.818;9.088;2023-05-10T03:25:04;12.20;99.90
9167;DHT22;4618;48.818;9.088;2023-05-10T03:27:31;12.10;99.90
9167;DHT22;4618;48.818;9.088;2023-05-10T03:29:57;12.00;99.90
9167;DHT22;4618;48.818;9.088;2023-05-10T03:32:23;12.10;99.90
9167;DHT22;4618;48.818;9.088;2023-05-10T03:34:49;12.10;99.90
9167;DHT22;4618;48.818;9.088;2023-05-10T03:37:15;12.10;99.90
9167;DHT22;4618;48.818;9.088;2023-05-10T03:39:40;12.10;99.90
9167;DHT22;4618;48.818;9.088;2023-05-10T03:42:06;12.10;99.90
9167;DHT22;4618;48.818;9.088;2023-05-10T03:44:31;12.10;99.90
9167;DHT22;4618;48.818;9.088;2023-05-10T03:46:58;12.10;99.90
9167;DHT22;4618;48.818;9.088;2023-05-10T03:49:24;12.00;99.90
9167;DHT22;4618;48.818;9.088;2023-05-10T03:51:49;12.10;99.90
9167;DHT22;4618;48.818;9.088;2023-05-10T03:54:15;12.10;99.90
9167;DHT22;4618;48.818;9.088;2023-05-10T03:56:41;12.00;99.90
9167;DHT22;4618;48.818;9.088;2023-05-10T03:59:06;12.00;99.90
9167;DHT22;4618;48.818;9.088;2023-05-10T04:01:33;11.90;99.90
9167;DHT22;4618;48.818;9.088;2023-05-10T04:03:59;12.00;1.00
9167;DHT22;4618;48.818;9.088;2023-05-10T04:06:26;12.00;1.00
9167;DHT22;4618;48.818;9.088;2023-05-10T04:08:51;12.10;99.90
9167;DHT22;4618;48.818;9.088;2023-05-10T04:11:17;12.30;99.90
9167;DHT22;4618;48.818;9.088;2023-05-10T04:13:42;12.30;1.00
9167;DHT22;4618;48.818;9.088;2023-05-10T04:16:08;12.30;1.00
9167;DHT22;4618;48.818;9.088;2023-05-10T04:18:34;12.30;1.00
9167;DHT22;4618;48.818;9.088;2023-05-10T04:21:00;12.30;1.00
9167;DHT22;4618;48.818;9.088;2023-05-10T04:23:27;12.40;1.00
9167;DHT22;4618;48.818;9.088;2023-05-10T04:25:52;12.30;1.00
9167;DHT22;4618;48.818;9.088;2023-05-10T04:28:23;12.40;99.90
9167;DHT22;4618;48.818;9.088;2023-05-10T04:30:49;12.40;99.90
9167;DHT22;4618;48.818;9.088;2023-05-10T04:33:14;12.40;99.90
9167;DHT22;4618;48.818;9.088;2023-05-10T04:35:40;12.40;99.90
9167;DHT22;4618;48.818;9.088;2023-05-10T04:38:06;12.40;99.90
9167;DHT22;4618;48.818;9.088;2023-05-10T04:40:32;12.50;1.00
9167;DHT22;4618;48.818;9.088;2023-05-10T04:42:57;12.50;99.90
9167;DHT22;4618;48.818;9.088;2023-05-10T04:45:23;12.50;1.00
9167;DHT22;4618;48.818;9.088;2023-05-10T04:47:48;12.50;99.90
9167;DHT22;4618;48.818;9.088;2023-05-10T04:50:14;12.50;99.90
9167;DHT22;4618;48.818;9.088;2023-05-10T04:52:39;12.50;1.00
9167;DHT22;4618;48.818;9.088;2023-05-10T04:55:05;12.50;1.00
9167;DHT22;4618;48.818;9.088;2023-05-10T04:57:33;12.60;1.00
9167;DHT22;4618;48.818;9.088;2023-05-10T04:59:59;12.60;1.00
9167;DHT22;4618;48.818;9.088;2023-05-10T05:02:25;12.70;1.00
9167;DHT22;4618;48.818;9.088;2023-05-10T05:04:50;12.70;99.90
9167;DHT22;4618;48.818;9.088;2023-05-10T05:07:16;12.80;99.90
9167;DHT22;4618;48.818;9.088;2023-05-10T05:09:42;12.90;99.90
9167;DHT22;4618;48.818;9.088;2023-05-10T05:12:07;12.90;99.90
9167;DHT22;4618;48.818;9.088;2023-05-10T05:14:33;12.90;99.90
9167;DHT22;4618;48.818;9.088;2023-05-10T05:16:58;12.90;99.90
9167;DHT22;4618;48.818;9.088;2023-05-10T05:19:24;13.00;1.00
9167;DHT22;4618;48.818;9.088;2023-05-10T05:21:49;13.10;1.00
9167;DHT22;4618;48.818;9.088;2023-05-10T05:24:15;13.10;1.00
9167;DHT22;4618;48.818;9.088;2023-05-10T05:26:41;13.20;99.90
9167;DHT22;4618;48.818;9.088;2023-05-10T05:29:06;13.30;99.90
9167;DHT22;4618;48.818;9.088;2023-05-10T05:31:32;13.30;99.90
9167;DHT22;4618;48.818;9.088;2023-05-10T05:33:58;13.30;99.90
9167;DHT22;4618;48.818;9.088;2023-05-10T05:36:23;13.40;99.90
9167;DHT22;4618;48.818;9.088;2023-05-10T05:38:49;13.50;49.60
9167;DHT22;4618;48.818;9.088;2023-05-10T05:41:14;13.50;18.20
9167;DHT22;4618;48.818;9.088;2023-05-10T05:43:40;13.60;36.40
9167;DHT22;4618;48.818;9.088;2023-05-10T05:46:06;13.70;82.10
9167;DHT22;4618;48.818;9.088;2023-05-10T05:48:31;13.80;99.90
9167;DHT22;4618;48.818;9.088;2023-05-10T05:50:57;13.80;1.00
9167;DHT22;4618;48.818;9.088;2023-05-10T05:53:23;13.80;1.00
9167;DHT22;4618;48.818;9.088;2023-05-10T05:55:54;13.70;1.00
9167;DHT22;4618;48.818;9.088;2023-05-10T05:58:20;13.60;1.00
9167;DHT22;4618;48.818;9.088;2023-05-10T06:00:46;13.60;29.50
9167;DHT22;4618;48.818;9.088;2023-05-10T06:03:11;13.70;1.00
9167;DHT22;4618;48.818;9.088;2023-05-10T06:05:37;13.80;1.00
9167;DHT22;4618;48.818;9.088;2023-05-10T06:08:03;13.90;99.60
9167;DHT22;4618;48.818;9.088;2023-05-10T06:10:28;14.00;1.00
9167;DHT22;4618;48.818;9.088;2023-05-10T06:12:54;14.00;99.90
9167;DHT22;4618;48.818;9.088;2023-05-10T06:15:20;14.00;99.90
9167;DHT22;4618;48.818;9.088;2023-05-10T06:17:45;14.00;1.00
9167;DHT22;4618;48.818;9.088;2023-05-10T06:20:12;13.90;99.90
9167;DHT22;4618;48.818;9.088;2023-05-10T06:22:38;13.80;99.90
9167;DHT22;4618;48.818;9.088;2023-05-10T06:25:04;13.70;1.00
9167;DHT22;4618;48.818;9.088;2023-05-10T06:27:30;13.70;1.00
9167;DHT22;4618;48.818;9.088;2023-05-10T06:29:55;13.80;1.00
9167;DHT22;4618;48.818;9.088;2023-05-10T06:32:21;13.70;1.00
9167;DHT22;4618;48.818;9.088;2023-05-10T06:34:46;13.90;1.00
9167;DHT22;4618;48.818;9.088;2023-05-10T06:37:12;14.00;99.90
9167;DHT22;4618;48.818;9.088;2023-05-10T06:39:37;14.10;39.00
9167;DHT22;4618;48.818;9.088;2023-05-10T06:42:03;14.10;99.90
9167;DHT22;4618;48.818;9.088;2023-05-10T06:44:29;13.90;99.90
9167;DHT22;4618;48.818;9.088;2023-05-10T06:46:55;14.00;99.90
9167;DHT22;4618;48.818;9.088;2023-05-10T06:49:21;14.00;99.90
9167;DHT22;4618;48.818;9.088;2023-05-10T06:51:46;13.90;1.00
9167;DHT22;4618;48.818;9.088;2023-05-10T06:54:12;13.90;1.00
9167;DHT22;4618;48.818;9.088;2023-05-10T06:56:38;13.90;27.20
9167;DHT22;4618;48.818;9.088;2023-05-10T06:59:03;14.10;33.90
9167;DHT22;4618;48.818;9.088;2023-05-10T07:01:28;14.20;99.90
9167;DHT22;4618;48.818;9.088;2023-05-10T07:03:54;14.40;99.90
9167;DHT22;4618;48.818;9.088;2023-05-10T07:06:20;14.30;1.00
9167;DHT22;4618;48.818;9.088;2023-05-10T07:08:45;14.20;99.90
9167;DHT22;4618;48.818;9.088;2023-05-10T07:11:11;14.20;99.90
9167;DHT22;4618;48.818;9.088;2023-05-10T07:13:36;14.30;54.80
9167;DHT22;4618;48.818;9.088;2023-05-10T07:16:04;14.30;1.00
9167;DHT22;4618;48.818;9.088;2023-05-10T07:18:31;14.40;99.90
9167;DHT22;4618;48.818;9.088;2023-05-10T07:20:57;14.60;1.00
9167;DHT22;4618;48.818;9.088;2023-05-10T07:23:23;14.60;1.00
9167;DHT22;4618;48.818;9.088;2023-05-10T07:25:49;14.70;1.00
9167;DHT22;4618;48.818;9.088;2023-05-10T07:28:17;14.80;1.00
9167;DHT22;4618;48.818;9.088;2023-05-10T07:30:43;14.90;1.00
9167;DHT22;4618;48.818;9.088;2023-05-10T07:33:10;15.00;1.00
9167;DHT22;4618;48.818;9.088;2023-05-10T07:35:36;15.10;1.00
9167;DHT22;4618;48.818;9.088;2023-05-10T07:38:02;15.20;99.90
9167;DHT22;4618;48.818;9.088;2023-05-10T07:40:28;15.40;1.00
9167;DHT22;4618;48.818;9.088;2023-05-10T07:42:54;15.60;99.90
9167;DHT22;4618;48.818;9.088;2023-05-10T07:45:19;15.80;93.40
9167;DHT22;4618;48.818;9.088;2023-05-10T07:47:45;15.80;1.00
9167;DHT22;4618;48.818;9.088;2023-05-10T07:50:10;15.70;1.00
9167;DHT22;4618;48.818;9.088;2023-05-10T07:52:36;15.70;1.00
9167;DHT22;4618;48.818;9.088;2023-05-10T07:55:01;15.80;1.00
9167;DHT22;4618;48.818;9.088;2023-05-10T07:57:27;15.80;99.90
9167;DHT22;4618;48.818;9.088;2023-05-10T07:59:53;15.80;99.90
9167;DHT22;4618;48.818;9.088;2023-05-10T08:02:18;15.70;99.90
9167;DHT22;4618;48.818;9.088;2023-05-10T08:04:44;15.60;99.90
9167;DHT22;4618;48.818;9.088;2023-05-10T08:07:09;15.50;99.90
9167;DHT22;4618;48.818;9.088;2023-05-10T08:09:36;15.40;99.90
9167;DHT22;4618;48.818;9.088;2023-05-10T08:12:01;15.50;99.90
9167;DHT22;4618;48.818;9.088;2023-05-10T08:14:28;15.50;99.90
9167;DHT22;4618;48.818;9.088;2023-05-10T08:16:54;15.60;29.00
9167;DHT22;4618;48.818;9.088;2023-05-10T08:19:19;15.60;1.00
9167;DHT22;4618;48.818;9.088;2023-05-10T08:21:47;15.70;1.00
9167;DHT22;4618;48.818;9.088;2023-05-10T08:24:13;15.80;1.00
9167;DHT22;4618;48.818;9.088;2023-05-10T08:26:38;15.90;1.00
9167;DHT22;4618;48.818;9.088;2023-05-10T08:29:04;15.90;1.00
9167;DHT22;4618;48.818;9.088;2023-05-10T08:31:30;16.10;1.00
9167;DHT22;4618;48.818;9.088;2023-05-10T08:33:55;16.10;99.90
9167;DHT22;4618;48.818;9.088;2023-05-10T08:36:21;15.90;99.90
9167;DHT22;4618;48.818;9.088;2023-05-10T08:38:53;16.10;1.00
9167;DHT22;4618;48.818;9.088;2023-05-10T08:41:22;16.20;99.90
9167;DHT22;4618;48.818;9.088;2023-05-10T08:43:50;16.30;1.00
9167;DHT22;4618;48.818;9.088;2023-05-10T08:46:18;16.70;99.90
9167;DHT22;4618;48.818;9.088;2023-05-10T08:48:48;16.90;99.90
9167;DHT22;4618;48.818;9.088;2023-05-10T08:51:18;16.90;1.00
9167;DHT22;4618;48.818;9.088;2023-05-10T08:53:45;16.90;99.90
9167;DHT22;4618;48.818;9.088;2023-05-10T08:56:11;16.60;99.90
9167;DHT22;4618;48.818;9.088;2023-05-10T08:58:37;16.80;1.00
9167;DHT22;4618;48.818;9.088;2023-05-10T09:01:05;17.10;1.00
9167;DHT22;4618;48.818;9.088;2023-05-10T09:03:30;17.00;1.00
9167;DHT22;4618;48.818;9.088;2023-05-10T09:05:56;17.00;99.90
9167;DHT22;4618;48.818;9.088;2023-05-10T09:08:23;17.10;99.90
9167;DHT22;4618;48.818;9.088;2023-05-10T09:10:53;17.00;99.90
9167;DHT22;4618;48.818;9.088;2023-05-10T09:13:20;17.30;1.00
9167;DHT22;4618;48.818;9.088;2023-05-10T09:15:47;17.30;1.00
9167;DHT22;4618;48.818;9.088;2023-05-10T09:18:13;17.20;99.90
9167;DHT22;4618;48.818;9.088;2023-05-10T09:24:04;16.90;94.00
9167;DHT22;4618;48.818;9.088;2023-05-10T09:26:30;17.00;27.60
9167;DHT22;4618;48.818;9.088;2023-05-10T09:28:57;16.90;1.00
9167;DHT22;4618;48.818;9.088;2023-05-10T09:31:23;17.00;99.90
9167;DHT22;4618;48.818;9.088;2023-05-10T09:33:51;17.40;99.90
9167;DHT22;4618;48.818;9.088;2023-05-10T09:36:17;17.50;1.00
9167;DHT22;4618;48.818;9.088;2023-05-10T09:38:50;17.20;1.00
9167;DHT22;4618;48.818;9.088;2023-05-10T09:41:21;16.80;1.00
9167;DHT22;4618;48.818;9.088;2023-05-10T09:43:47;16.60;47.10
9167;DHT22;4618;48.818;9.088;2023-05-10T09:46:14;16.50;99.90
9167;DHT22;4618;48.818;9.088;2023-05-10T09:48:42;16.50;1.00
9167;DHT22;4618;48.818;9.088;2023-05-10T09:51:08;16.90;99.90
9167;DHT22;4618;48.818;9.088;2023-05-10T09:53:33;17.30;1.00
9167;DHT22;4618;48.818;9.088;2023-05-10T09:55:59;17.30;1.00
9167;DHT22;4618;48.818;9.088;2023-05-10T09:58:25;17.40;1.00
9167;DHT22;4618;48.818;9.088;2023-05-10T10:00:50;17.10;1.00
9167;DHT22;4618;48.818;9.088;2023-05-10T10:03:20;16.70;42.00
9167;DHT22;4618;48.818;9.088;2023-05-10T10:05:46;16.60;99.90
9167;DHT22;4618;48.818;9.088;2023-05-10T10:08:13;16.50;99.90
9167;DHT22;4618;48.818;9.088;2023-05-10T10:10:39;16.80;99.90
9167;DHT22;4618;48.818;9.088;2023-05-10T10:13:09;17.20;1.00
9167;DHT22;4618;48.818;9.088;2023-05-10T10:15:35;17.40;1.00
9167;DHT22;4618;48.818;9.088;2023-05-10T10:18:01;17.70;1.00
9167;DHT22;4618;48.818;9.088;2023-05-10T10:20:27;17.80;1.00
9167;DHT22;4618;48.818;9.088;2023-05-10T10:22:53;18.00;99.90
9167;DHT22;4618;48.818;9.088;2023-05-10T10:25:20;18.20;99.90
9167;DHT22;4618;48.818;9.088;2023-05-10T10:30:43;18.60;99.90
9167;DHT22;4618;48.818;9.088;2023-05-10T10:36:08;18.40;99.90
9167;DHT22;4618;48.818;9.088;2023-05-10T10:41:34;18.50;99.90
9167;DHT22;4618;48.818;9.088;2023-05-10T10:52:32;18.30;99.90
9167;DHT22;4618;48.818;9.088;2023-05-10T10:57:46;17.20;99.90
9167;DHT22;4618;48.818;9.088;2023-05-10T11:03:06;16.10;99.90
9167;DHT22;4618;48.818;9.088;2023-05-10T11:08:14;16.00;99.90
9167;DHT22;4618;48.818;9.088;2023-05-10T11:10:48;15.80;99.90
9167;DHT22;4618;48.818;9.088;2023-05-10T11:13:14;16.10;99.90
9167;DHT22;4618;48.818;9.088;2023-05-10T11:15:40;16.30;99.90
9167;DHT22;4618;48.818;9.088;2023-05-10T11:18:23;16.70;99.90
9167;DHT22;4618;48.818;9.088;2023-05-10T11:20:58;17.30;99.90
9167;DHT22;4618;48.818;9.088;2023-05-10T11:23:49;17.50;99.90
9167;DHT22;4618;48.818;9.088;2023-05-10T11:26:15;17.70;99.90
9167;DHT22;4618;48.818;9.088;2023-05-10T11:28:48;17.70;99.90
9167;DHT22;4618;48.818;9.088;2023-05-10T11:31:18;17.90;99.90
9167;DHT22;4618;48.818;9.088;2023-05-10T11:33:44;17.90;99.90
9167;DHT22;4618;48.818;9.088;2023-05-10T11:36:17;17.50;99.90
9167;DHT22;4618;48.818;9.088;2023-05-10T11:38:44;17.50;99.90
9167;DHT22;4618;48.818;9.088;2023-05-10T11:41:10;17.40;99.90
9167;DHT22;4618;48.818;9.088;2023-05-10T11:43:37;17.10;99.90
9167;DHT22;4618;48.818;9.088;2023-05-10T11:46:07;17.20;99.90
9167;DHT22;4618;48.818;9.088;2023-05-10T11:48:33;16.70;99.90
9167;DHT22;4618;48.818;9.088;2023-05-10T11:51:00;16.40;99.90
9167;DHT22;4618;48.818;9.088;2023-05-10T11:53:29;16.20;99.90
9167;DHT22;4618;48.818;9.088;2023-05-10T11:55:54;16.10;1.00
9167;DHT22;4618;48.818;9.088;2023-05-10T11:58:20;16.20;99.90
9167;DHT22;4618;48.818;9.088;2023-05-10T12:00:46;16.10;99.90
9167;DHT22;4618;48.818;9.088;2023-05-10T12:03:12;16.20;99.90
9167;DHT22;4618;48.818;9.088;2023-05-10T12:05:38;16.40;99.90
9167;DHT22;4618;48.818;9.088;2023-05-10T12:08:14;16.70;99.90
9167;DHT22;4618;48.818;9.088;2023-05-10T12:10:40;16.60;99.90
9167;DHT22;4618;48.818;9.088;2023-05-10T12:13:11;16.50;99.90
9167;DHT22;4618;48.818;9.088;2023-05-10T12:15:37;16.40;99.90
9167;DHT22;4618;48.818;9.088;2023-05-10T12:18:03;16.80;99.90
9167;DHT22;4618;48.818;9.088;2023-05-10T12:20:29;17.10;99.90
9167;DHT22;4618;48.818;9.088;2023-05-10T12:22:57;17.40;99.90
9167;DHT22;4618;48.818;9.088;2023-05-10T12:25:24;17.30;99.90
9167;DHT22;4618;48.818;9.088;2023-05-10T12:27:54;17.20;99.90
9167;DHT22;4618;48.818;9.088;2023-05-10T12:30:27;17.30;99.90
9167;DHT22;4618;48.818;9.088;2023-05-10T12:32:54;17.30;99.90
9167;DHT22;4618;48.818;9.088;2023-05-10T12:35:24;17.30;99.90
9167;DHT22;4618;48.818;9.088;2023-05-10T12:37:53;17.50;99.90
9167;DHT22;4618;48.818;9.088;2023-05-10T12:40:18;17.50;99.90
9167;DHT22;4618;48.818;9.088;2023-05-10T12:42:44;17.60;99.90
9167;DHT22;4618;48.818;9.088;2023-05-10T12:45:14;17.60;99.90
9167;DHT22;4618;48.818;9.088;2023-05-10T12:47:40;17.90;99.90
9167;DHT22;4618;48.818;9.088;2023-05-10T12:50:06;18.20;99.90
9167;DHT22;4618;48.818;9.088;2023-05-10T12:52:31;18.20;96.40
9167;DHT22;4618;48.818;9.088;2023-05-10T12:54:58;18.30;97.00
9167;DHT22;4618;48.818;9.088;2023-05-10T12:57:24;18.10;99.40
9167;DHT22;4618;48.818;9.088;2023-05-10T12:59:50;17.70;99.90
9167;DHT22;4618;48.818;9.088;2023-05-10T13:02:15;17.50;99.90
9167;DHT22;4618;48.818;9.088;2023-05-10T13:04:44;17.50;99.90
9167;DHT22;4618;48.818;9.088;2023-05-10T13:07:10;17.50;99.90
9167;DHT22;4618;48.818;9.088;2023-05-10T13:09:35;17.70;99.90
9167;DHT22;4618;48.818;9.088;2023-05-10T13:12:01;17.60;99.90
9167;DHT22;4618;48.818;9.088;2023-05-10T13:14:27;17.30;99.90
9167;DHT22;4618;48.818;9.088;2023-05-10T13:16:53;17.20;99.90
9167;DHT22;4618;48.818;9.088;2023-05-10T13:19:19;17.00;99.90
9167;DHT22;4618;48.818;9.088;2023-05-10T13:21:45;16.80;99.90
9167;DHT22;4618;48.818;9.088;2023-05-10T13:24:11;16.90;99.90
9167;DHT22;4618;48.818;9.088;2023-05-10T13:26:39;17.00;99.90
9167;DHT22;4618;48.818;9.088;2023-05-10T13:29:05;17.10;99.90
9167;DHT22;4618;48.818;9.088;2023-05-10T13:31:31;17.10;99.90
9167;DHT22;4618;48.818;9.088;2023-05-10T13:33:56;17.00;99.90
9167;DHT22;4618;48.818;9.088;2023-05-10T13:36:22;17.00;99.90
9167;DHT22;4618;48.818;9.088;2023-05-10T13:38:48;17.20;99.90
9167;DHT22;4618;48.818;9.088;2023-05-10T13:41:13;17.20;99.90
9167;DHT22;4618;48.818;9.088;2023-05-10T13:43:39;17.20;99.90
9167;DHT22;4618;48.818;9.088;2023-05-10T13:46:05;17.30;99.90
9167;DHT22;4618;48.818;9.088;2023-05-10T13:48:31;17.30;99.90
9167;DHT22;4618;48.818;9.088;2023-05-10T13:50:56;17.40;94.60
9167;DHT22;4618;48.818;9.088;2023-05-10T13:53:22;17.50;92.60
9167;DHT22;4618;48.818;9.088;2023-05-10T13:55:48;17.50;91.40
9167;DHT22;4618;48.818;9.088;2023-05-10T13:58:13;17.70;93.80
9167;DHT22;4618;48.818;9.088;2023-05-10T14:00:39;17.70;88.30
9167;DHT22;4618;48.818;9.088;2023-05-10T14:03:05;17.70;69.50
9167;DHT22;4618;48.818;9.088;2023-05-10T14:05:31;17.90;73.60
9167;DHT22;4618;48.818;9.088;2023-05-10T14:07:57;17.90;64.50
9167;DHT22;4618;48.818;9.088;2023-05-10T14:10:22;17.90;54.20
9167;DHT22;4618;48.818;9.088;2023-05-10T14:12:49;18.20;53.70
9167;DHT22;4618;48.818;9.088;2023-05-10T14:15:14;18.30;46.50
9167;DHT22;4618;48.818;9.088;2023-05-10T14:17:40;18.30;41.90
9167;DHT22;4618;48.818;9.088;2023-05-10T14:20:06;18.10;47.80
9167;DHT22;4618;48.818;9.088;2023-05-10T14:22:32;17.90;50.40
9167;DHT22;4618;48.818;9.088;2023-05-10T14:24:58;17.80;51.10
9167;DHT22;4618;48.818;9.088;2023-05-10T14:27:24;17.90;52.00
9167;DHT22;4618;48.818;9.088;2023-05-10T14:29:49;17.90;48.00
9167;DHT22;4618;48.818;9.088;2023-05-10T14:32:15;17.70;58.30
9167;DHT22;4618;48.818;9.088;2023-05-10T14:34:40;17.70;57.20
9167;DHT22;4618;48.818;9.088;2023-05-10T14:37:06;17.80;55.50
9167;DHT22;4618;48.818;9.088;2023-05-10T14:39:32;17.90;51.30
9167;DHT22;4618;48.818;9.088;2023-05-10T14:41:58;17.80;52.10
9167;DHT22;4618;48.818;9.088;2023-05-10T14:44:24;17.80;49.10
9167;DHT22;4618;48.818;9.088;2023-05-10T14:46:49;17.80;49.30
9167;DHT22;4618;48.818;9.088;2023-05-10T14:49:15;18.10;42.10
9167;DHT22;4618;48.818;9.088;2023-05-10T14:51:41;18.10;42.80
9167;DHT22;4618;48.818;9.088;2023-05-10T14:54:06;18.10;49.80
9167;DHT22;4618;48.818;9.088;2023-05-10T14:56:32;18.30;37.50
9167;DHT22;4618;48.818;9.088;2023-05-10T14:58:58;18.80;38.70
9167;DHT22;4618;48.818;9.088;2023-05-10T15:01:24;18.80;30.40
9167;DHT22;4618;48.818;9.088;2023-05-10T15:03:50;18.80;30.50
9167;DHT22;4618;48.818;9.088;2023-05-10T15:06:16;18.80;31.20
9167;DHT22;4618;48.818;9.088;2023-05-10T15:08:41;18.70;37.20
9167;DHT22;4618;48.818;9.088;2023-05-10T15:11:07;18.80;31.40
9167;DHT22;4618;48.818;9.088;2023-05-10T15:13:32;18.60;30.00
9167;DHT22;4618;48.818;9.088;2023-05-10T15:15:58;18.50;36.50
9167;DHT22;4618;48.818;9.088;2023-05-10T15:18:24;18.30;44.90
9167;DHT22;4618;48.818;9.088;2023-05-10T15:20:49;18.10;49.10
9167;DHT22;4618;48.818;9.088;2023-05-10T15:23:15;18.00;48.30
9167;DHT22;4618;48.818;9.088;2023-05-10T15:25:41;18.00;40.40
9167;DHT22;4618;48.818;9.088;2023-05-10T15:28:06;18.30;42.50
9167;DHT22;4618;48.818;9.088;2023-05-10T15:30:32;18.50;34.90
9167;DHT22;4618;48.818;9.088;2023-05-10T15:32:57;18.60;42.50
9167;DHT22;4618;48.818;9.088;2023-05-10T15:35:23;18.70;36.50
9167;DHT22;4618;48.818;9.088;2023-05-10T15:37:49;18.50;40.00
9167;DHT22;4618;48.818;9.088;2023-05-10T15:40:15;18.60;35.70
9167;DHT22;4618;48.818;9.088;2023-05-10T15:42:40;18.70;31.20
9167;DHT22;4618;48.818;9.088;2023-05-10T15:45:06;18.80;30.50
9167;DHT22;4618;48.818;9.088;2023-05-10T15:47:32;18.70;28.60
9167;DHT22;4618;48.818;9.088;2023-05-10T15:49:58;18.50;37.00
9167;DHT22;4618;48.818;9.088;2023-05-10T15:52:23;18.50;32.50
9167;DHT22;4618;48.818;9.088;2023-05-10T15:54:50;18.60;31.80
9167;DHT22;4618;48.818;9.088;2023-05-10T15:57:16;18.60;29.30
9167;DHT22;4618;48.818;9.088;2023-05-10T15:59:41;18.70;31.30
9167;DHT22;4618;48.818;9.088;2023-05-10T16:02:08;18.70;27.90
9167;DHT22;4618;48.818;9.088;2023-05-10T16:04:35;18.70;25.80
9167;DHT22;4618;48.818;9.088;2023-05-10T16:07:01;18.60;26.80
9167;DHT22;4618;48.818;9.088;2023-05-10T16:09:27;18.60;25.90
9167;DHT22;4618;48.818;9.088;2023-05-10T16:11:52;18.50;28.40
9167;DHT22;4618;48.818;9.088;2023-05-10T16:14:18;18.30;21.80
9167;DHT22;4618;48.818;9.088;2023-05-10T16:16:45;18.10;30.80
9167;DHT22;4618;48.818;9.088;2023-05-10T16:19:12;17.80;35.70
9167;DHT22;4618;48.818;9.088;2023-05-10T16:21:37;17.50;39.50
9167;DHT22;4618;48.818;9.088;2023-05-10T16:24:03;17.30;42.90
9167;DHT22;4618;48.818;9.088;2023-05-10T16:26:29;17.20;48.20
9167;DHT22;4618;48.818;9.088;2023-05-10T16:31:23;17.00;51.10
9167;DHT22;4618;48.818;9.088;2023-05-10T16:33:49;17.00;54.60
9167;DHT22;4618;48.818;9.088;2023-05-10T16:36:14;16.90;56.10
9167;DHT22;4618;48.818;9.088;2023-05-10T16:38:40;16.70;62.10
9167;DHT22;4618;48.818;9.088;2023-05-10T16:41:06;16.70;61.80
9167;DHT22;4618;48.818;9.088;2023-05-10T16:43:32;16.60;68.20
9167;DHT22;4618;48.818;9.088;2023-05-10T16:45:57;16.50;74.50
9167;DHT22;4618;48.818;9.088;2023-05-10T16:48:23;16.50;82.30
9167;DHT22;4618;48.818;9.088;2023-05-10T16:50:48;16.50;81.80